Time;durP1;ratioP1;P1;durP2;ratioP2;P2;SDS_P1;SDS_P2;PMS_P1;PMS_P2;Temp;Humidity;BMP_temperature;BMP_pressure;BME280_temperature;BME280_humidity;BME280_pressure;Samples;Min_cycle;Max_cycle;Signal;HPM_P1;HPM_P2
2022/06/11 00:02:20;;;;;;;27.15;22.45;;;17.40;99.90;;;;;;4962756;28;20054;-66
2022/06/11 00:04:46;;;;;;;26.35;22.02;;;17.40;99.90;;;;;;4955980;28;20514;-66
2022/06/11 00:09:48;;;;;;;26.88;20.38;;;17.40;99.90;;;;;;5204157;22;20064;-68
2022/06/11 00:12:14;;;;;;;24.42;20.58;;;17.30;99.90;;;;;;5000479;28;20501;-68
2022/06/11 00:14:42;;;;;;;27.77;21.40;;;17.20;99.90;;;;;;5031587;28;20548;-68
2022/06/11 00:17:12;;;;;;;25.30;20.60;;;17.20;99.90;;;;;;5008078;28;20135;-68
2022/06/11 00:19:39;;;;;;;28.15;21.35;;;17.10;99.90;;;;;;5019218;28;20045;-68
2022/06/11 00:22:06;;;;;;;29.35;21.88;;;17.20;99.90;;;;;;5025589;28;20051;-68
2022/06/11 00:24:32;;;;;;;25.80;20.10;;;17.20;99.90;;;;;;5029824;28;20041;-68
2022/06/11 00:26:59;;;;;;;26.88;19.27;;;17.20;99.90;;;;;;5031168;28;20044;-69
2022/06/11 00:29:28;;;;;;;26.90;18.88;;;17.20;99.90;;;;;;5018031;28;20091;-69
2022/06/11 00:31:54;;;;;;;24.20;18.40;;;17.20;99.90;;;;;;5013672;28;20041;-68
2022/06/11 00:34:21;;;;;;;25.58;18.25;;;17.20;99.90;;;;;;5010486;28;20042;-68
2022/06/11 00:36:48;;;;;;;29.52;18.35;;;17.20;99.90;;;;;;5021878;28;20069;-68
2022/06/11 00:39:17;;;;;;;22.60;17.70;;;17.20;99.90;;;;;;5013570;28;20076;-68
2022/06/11 00:42:25;;;;;;;24.02;17.65;;;17.20;99.90;;;;;;5009661;28;20041;-68
2022/06/11 00:51:47;;;;;;;22.88;15.77;;;17.10;99.90;;;;;;5970191;22;20111;-68
2022/06/11 00:54:17;;;;;;;22.42;16.20;;;17.00;99.90;;;;;;5030454;28;20048;-68
2022/06/11 00:56:52;;;;;;;19.33;14.70;;;16.90;99.90;;;;;;5017019;28;20448;-68
2022/06/11 00:59:25;;;;;;;21.08;15.57;;;16.90;99.90;;;;;;5031546;28;20048;-68
2022/06/11 01:01:51;;;;;;;20.73;15.35;;;16.80;99.90;;;;;;5035002;28;20401;-68
2022/06/11 01:04:37;;;;;;;20.88;15.23;;;16.70;99.90;;;;;;5047118;28;20119;-68
2022/06/11 01:16:21;;;;;;;22.73;16.02;;;16.40;99.90;;;;;;5088775;22;20057;-66
2022/06/11 01:19:04;;;;;;;20.00;15.65;;;16.40;99.90;;;;;;5005603;28;20049;-67
2022/06/11 01:29:41;;;;;;;23.75;17.45;;;16.20;99.90;;;;;;5474267;22;20084;-68
2022/06/11 01:37:31;;;;;;;30.05;19.75;;;15.90;99.90;;;;;;5990615;22;20049;-66
2022/06/11 01:40:18;;;;;;;29.27;21.50;;;15.90;99.90;;;;;;5009922;28;20108;-67
2022/06/11 01:42:54;;;;;;;25.60;18.60;;;15.80;99.90;;;;;;5029947;28;20129;-67
2022/06/11 01:45:35;;;;;;;22.42;16.13;;;15.70;99.90;;;;;;5050526;28;20044;-67
2022/06/11 01:50:41;;;;;;;22.77;17.00;;;15.30;99.90;;;;;;5887627;22;20065;-66
2022/06/11 01:53:14;;;;;;;29.73;20.53;;;15.30;99.90;;;;;;5020607;28;20045;-66
2022/06/11 01:56:17;;;;;;;32.20;22.55;;;15.30;99.90;;;;;;5050650;28;20037;-66
2022/06/11 01:58:54;;;;;;;29.23;21.38;;;15.30;99.90;;;;;;5039780;28;20409;-67
2022/06/11 02:01:23;;;;;;;30.85;21.27;;;15.30;99.90;;;;;;5046858;28;20052;-67
2022/06/11 02:03:58;;;;;;;34.17;22.33;;;15.30;99.90;;;;;;5033261;28;20112;-67
2022/06/11 02:11:42;;;;;;;28.85;22.90;;;15.30;99.90;;;;;;5308237;22;20403;-67
2022/06/11 02:14:36;;;;;;;39.22;23.17;;;15.40;99.90;;;;;;4967451;28;20043;-67
2022/06/11 02:17:10;;;;;;;36.97;24.60;;;15.50;99.90;;;;;;5197219;22;20056;-67
2022/06/11 02:19:42;;;;;;;32.95;23.95;;;15.60;99.90;;;;;;5026763;28;20076;-67
2022/06/11 02:22:15;;;;;;;32.63;23.02;;;15.80;99.90;;;;;;5041230;28;20041;-67
2022/06/11 02:28:28;;;;;;;31.33;21.52;;;15.90;99.90;;;;;;5544734;22;20053;-67
2022/06/11 02:30:57;;;;;;;31.55;22.15;;;15.90;99.90;;;;;;4991859;28;20049;-68
2022/06/11 02:33:23;;;;;;;32.08;22.02;;;15.80;99.90;;;;;;5028219;28;20504;-68
2022/06/11 02:38:27;;;;;;;33.28;21.17;;;15.60;99.90;;;;;;5767569;22;20046;-67
2022/06/11 02:47:00;;;;;;;29.63;21.50;;;15.40;99.90;;;;;;5424179;22;20445;-68
2022/06/11 02:49:29;;;;;;;30.25;20.88;;;15.30;99.90;;;;;;4998599;28;20501;-68
2022/06/11 02:51:58;;;;;;;30.05;20.98;;;15.20;99.90;;;;;;5014832;28;20378;-68
2022/06/11 02:54:25;;;;;;;27.23;18.92;;;15.20;99.90;;;;;;5033708;28;20041;-68
2022/06/11 03:03:08;;;;;;;26.50;17.63;;;15.10;99.90;;;;;;5784474;22;20118;-68
2022/06/11 03:05:36;;;;;;;26.85;18.30;;;15.00;99.90;;;;;;5012804;28;20060;-68
2022/06/11 03:08:03;;;;;;;25.05;17.92;;;15.10;99.90;;;;;;5019854;28;20500;-68
2022/06/11 03:10:29;;;;;;;24.40;17.48;;;15.10;99.90;;;;;;5045932;28;20033;-68
2022/06/11 03:12:55;;;;;;;24.40;14.65;;;15.10;99.90;;;;;;5033693;28;20392;-68
2022/06/11 03:15:23;;;;;;;25.40;14.93;;;15.00;99.90;;;;;;5030128;28;20075;-68
2022/06/11 03:17:51;;;;;;;19.70;13.55;;;15.00;99.90;;;;;;5048656;28;20037;-68
2022/06/11 03:20:17;;;;;;;20.23;13.20;;;15.10;99.90;;;;;;5044521;28;20504;-68
2022/06/11 03:25:19;;;;;;;21.50;12.23;;;15.00;99.90;;;;;;5350180;22;20054;-66
2022/06/11 03:27:44;;;;;;;17.10;12.35;;;14.90;99.90;;;;;;5028326;28;20084;-67
2022/06/11 03:30:12;;;;;;;17.65;11.55;;;14.90;99.90;;;;;;5010931;28;20045;-67
2022/06/11 03:32:38;;;;;;;21.25;12.05;;;14.90;99.90;;;;;;5004525;28;20042;-67
2022/06/11 03:35:05;;;;;;;16.42;10.18;;;14.90;99.90;;;;;;4995585;28;20046;-67
2022/06/11 03:48:05;;;;;;;18.77;8.98;;;14.90;99.90;;;;;;5682398;22;20106;-67
2022/06/11 03:50:36;;;;;;;15.70;8.68;;;15.00;99.90;;;;;;5034184;28;20441;-68
2022/06/11 03:53:05;;;;;;;18.23;8.15;;;14.90;99.90;;;;;;5033640;28;20037;-68
2022/06/11 03:55:31;;;;;;;16.08;7.97;;;15.00;99.90;;;;;;5042663;28;20048;-68
2022/06/11 04:10:46;;;;;;;14.57;6.97;;;15.30;99.90;;;;;;4968867;28;20404;-67
2022/06/11 04:13:13;;;;;;;13.82;7.32;;;15.30;99.90;;;;;;4959594;28;20042;-68
2022/06/11 04:15:40;;;;;;;17.63;7.25;;;15.30;99.90;;;;;;4985675;28;20034;-68
2022/06/11 04:18:08;;;;;;;12.57;7.13;;;15.30;99.90;;;;;;4989133;28;20486;-68
2022/06/11 04:20:34;;;;;;;17.48;7.90;;;15.20;99.90;;;;;;4971143;28;20058;-68
2022/06/11 04:25:35;;;;;;;15.57;7.57;;;15.20;99.90;;;;;;5730229;22;20064;-67
2022/06/11 04:28:01;;;;;;;11.88;7.43;;;15.20;99.90;;;;;;4983520;28;20046;-68
2022/06/11 04:42:04;;;;;;;13.05;7.93;;;15.30;99.90;;;;;;5987139;23;22377;-67
2022/06/11 04:44:30;;;;;;;15.95;9.25;;;15.30;99.90;;;;;;4981387;28;20039;-68
2022/06/11 04:46:56;;;;;;;15.32;9.32;;;15.40;99.90;;;;;;4972290;28;20548;-68
2022/06/11 04:49:22;;;;;;;15.65;9.65;;;15.40;99.90;;;;;;4961614;28;20606;-68
2022/06/11 04:51:48;;;;;;;18.17;9.43;;;15.50;99.90;;;;;;4955643;28;20038;-68
2022/06/11 04:54:14;;;;;;;16.95;10.05;;;15.50;99.90;;;;;;4982740;28;20090;-68
2022/06/11 04:59:15;;;;;;;14.38;9.60;;;15.60;99.90;;;;;;6016799;22;20091;-66
2022/06/11 05:01:42;;;;;;;18.67;10.00;;;15.60;99.90;;;;;;5007479;28;20499;-67
2022/06/11 05:04:09;;;;;;;15.77;10.10;;;15.70;99.90;;;;;;5000256;28;20500;-67
2022/06/11 05:06:39;;;;;;;17.38;9.57;;;15.70;99.90;;;;;;5019268;28;20033;-67
2022/06/11 05:09:10;;;;;;;15.85;9.43;;;15.80;99.90;;;;;;4986143;28;20505;-67
2022/06/11 05:14:15;;;;;;;15.27;9.00;;;15.80;99.90;;;;;;5061905;22;20113;-66
2022/06/11 05:16:44;;;;;;;14.05;8.80;;;15.90;99.90;;;;;;4979287;28;20049;-67
2022/06/11 05:19:13;;;;;;;15.02;8.30;;;15.90;99.90;;;;;;4991641;28;20444;-67
2022/06/11 05:21:39;;;;;;;19.17;8.75;;;15.90;99.90;;;;;;4978995;28;20046;-67
2022/06/11 05:24:05;;;;;;;15.75;8.40;;;16.00;99.90;;;;;;4966596;28;20078;-67
2022/06/11 05:26:49;;;;;;;17.55;8.15;;;16.00;99.90;;;;;;4974203;28;20088;-67
2022/06/11 05:29:39;;;;;;;12.07;7.10;;;16.00;99.90;;;;;;4979754;28;20049;-67
2022/06/11 05:32:05;;;;;;;12.47;7.63;;;16.00;99.90;;;;;;4980781;28;20183;-67
2022/06/11 05:34:31;;;;;;;14.90;6.95;;;16.10;99.90;;;;;;4987021;28;20812;-67
2022/06/11 05:36:58;;;;;;;13.77;6.75;;;16.10;99.90;;;;;;4979504;28;20119;-67
2022/06/11 05:39:25;;;;;;;12.30;6.47;;;16.10;99.90;;;;;;4979110;28;20061;-67
2022/06/11 05:41:50;;;;;;;18.60;6.70;;;16.20;99.90;;;;;;4993251;28;20042;-67
2022/06/11 05:44:17;;;;;;;15.25;6.22;;;16.20;99.90;;;;;;4993971;28;20084;-67
2022/06/11 05:46:43;;;;;;;14.63;5.97;;;16.20;99.90;;;;;;4999872;28;20129;-67
2022/06/11 05:49:15;;;;;;;14.30;6.40;;;16.20;99.90;;;;;;4983908;28;20033;-67
2022/06/11 05:51:45;;;;;;;15.93;6.07;;;16.20;99.90;;;;;;4965778;28;20476;-67
2022/06/11 05:54:17;;;;;;;18.90;6.50;;;16.30;99.90;;;;;;4991489;28;20070;-67
2022/06/11 05:56:43;;;;;;;15.68;5.68;;;16.30;99.90;;;;;;4992095;28;20344;-67
2022/06/11 05:59:14;;;;;;;13.77;6.32;;;16.40;99.90;;;;;;4983328;28;20550;-67
2022/06/11 06:01:41;;;;;;;20.67;6.30;;;16.40;99.90;;;;;;4965758;28;20132;-67
2022/06/11 06:04:07;;;;;;;12.80;5.78;;;16.50;99.90;;;;;;4974158;28;20222;-67
2022/06/11 06:06:33;;;;;;;15.35;5.80;;;16.50;99.90;;;;;;4974633;28;20054;-67
2022/06/11 06:08:59;;;;;;;14.90;5.75;;;16.60;99.90;;;;;;4969904;28;20045;-67
2022/06/11 06:11:28;;;;;;;16.73;5.22;;;16.60;99.90;;;;;;4973679;28;20038;-67
2022/06/11 06:13:56;;;;;;;16.83;5.60;;;16.60;99.90;;;;;;4974257;28;20414;-67
2022/06/11 06:16:25;;;;;;;17.45;6.45;;;16.70;99.90;;;;;;4963238;28;20043;-67
2022/06/11 06:18:52;;;;;;;15.40;5.55;;;16.80;99.90;;;;;;4983532;28;20057;-68
2022/06/11 06:21:21;;;;;;;16.98;5.00;;;16.80;99.90;;;;;;4990896;28;20856;-68
2022/06/11 06:23:47;;;;;;;14.50;5.22;;;16.80;99.90;;;;;;4971523;28;20053;-68
2022/06/11 06:26:14;;;;;;;24.17;5.93;;;16.90;99.90;;;;;;4963320;28;20070;-68
2022/06/11 06:28:41;;;;;;;17.50;5.68;;;16.90;99.90;;;;;;4962770;28;20050;-68
2022/06/11 06:31:08;;;;;;;22.48;5.40;;;16.90;99.90;;;;;;4972942;28;20042;-68
2022/06/11 06:33:33;;;;;;;19.30;5.40;;;16.90;99.90;;;;;;4991333;28;20539;-68
2022/06/11 06:36:01;;;;;;;21.95;5.50;;;16.90;99.90;;;;;;4965220;28;20101;-67
2022/06/11 06:38:27;;;;;;;17.83;4.88;;;16.90;99.90;;;;;;4989335;28;20628;-68
2022/06/11 06:40:53;;;;;;;25.05;5.47;;;17.00;99.90;;;;;;4963613;28;20130;-68
2022/06/11 06:43:19;;;;;;;16.55;5.18;;;17.00;99.90;;;;;;4962585;28;20130;-68
2022/06/11 06:45:45;;;;;;;20.23;5.10;;;17.10;99.90;;;;;;4974617;28;20469;-68
2022/06/11 06:48:11;;;;;;;17.25;5.20;;;17.10;99.90;;;;;;4973271;28;20093;-68
2022/06/11 06:50:37;;;;;;;15.90;5.07;;;17.20;99.90;;;;;;5003413;28;20041;-68
2022/06/11 06:53:03;;;;;;;17.63;4.88;;;17.20;99.90;;;;;;4966097;28;20042;-67
2022/06/11 06:55:29;;;;;;;23.05;5.30;;;17.20;99.90;;;;;;4988160;28;20041;-68
2022/06/11 06:57:54;;;;;;;21.67;5.25;;;17.20;99.90;;;;;;4967421;28;20050;-68
2022/06/11 07:00:20;;;;;;;20.83;5.00;;;17.30;99.90;;;;;;4977194;28;20077;-68
2022/06/11 07:02:47;;;;;;;18.88;5.45;;;17.40;99.90;;;;;;4989737;28;20046;-68
2022/06/11 07:05:15;;;;;;;23.75;5.45;;;17.40;99.90;;;;;;4976268;28;20050;-68
2022/06/11 07:07:41;;;;;;;22.70;5.82;;;17.50;99.90;;;;;;4979688;28;20046;-68
2022/06/11 07:10:09;;;;;;;23.42;5.20;;;17.60;99.90;;;;;;4972710;28;20413;-69
2022/06/11 07:12:35;;;;;;;19.58;4.80;;;17.60;99.90;;;;;;4984711;28;20053;-69
2022/06/11 07:15:01;;;;;;;26.40;5.20;;;17.60;99.90;;;;;;4989251;28;20081;-68
2022/06/11 07:17:34;;;;;;;21.27;5.05;;;17.70;99.90;;;;;;4968289;28;20042;-68
2022/06/11 07:20:10;;;;;;;21.20;5.00;;;17.70;99.90;;;;;;4975834;28;20046;-68
2022/06/11 07:22:41;;;;;;;19.98;5.70;;;17.70;99.90;;;;;;4956926;28;20045;-68
2022/06/11 07:25:09;;;;;;;14.10;4.23;;;17.70;99.90;;;;;;4965692;28;20499;-68
2022/06/11 07:27:40;;;;;;;21.90;5.57;;;17.80;99.90;;;;;;4974862;28;20042;-68
2022/06/11 07:30:15;;;;;;;21.67;5.07;;;17.90;99.90;;;;;;4961153;28;20643;-68
2022/06/11 07:32:44;;;;;;;19.40;5.75;;;17.90;99.90;;;;;;4965586;28;20455;-68
2022/06/11 07:35:13;;;;;;;25.25;5.72;;;17.90;99.90;;;;;;4993379;28;20039;-67
2022/06/11 07:37:40;;;;;;;19.95;5.20;;;18.10;99.90;;;;;;4971975;28;20504;-67
2022/06/11 07:40:07;;;;;;;21.25;5.50;;;18.10;99.90;;;;;;4963597;28;20047;-67
2022/06/11 07:42:33;;;;;;;18.25;5.70;;;18.20;99.90;;;;;;4957899;28;20115;-67
2022/06/11 07:44:58;;;;;;;17.27;5.25;;;18.20;99.90;;;;;;4973775;28;20481;-69
2022/06/11 07:50:11;;;;;;;20.95;5.50;;;18.30;99.90;;;;;;4965910;28;20039;-69
2022/06/11 07:52:41;;;;;;;24.00;5.57;;;18.30;99.90;;;;;;4955111;28;20117;-69
2022/06/11 07:55:08;;;;;;;19.98;5.68;;;18.20;99.90;;;;;;4981823;28;20051;-69
2022/06/11 07:57:34;;;;;;;21.55;5.53;;;18.40;99.90;;;;;;4959035;28;20160;-69
2022/06/11 08:00:01;;;;;;;22.10;5.38;;;18.40;99.90;;;;;;4969199;28;20409;-69
2022/06/11 08:02:26;;;;;;;20.38;5.40;;;18.60;99.90;;;;;;4969521;28;20121;-69
2022/06/11 08:04:52;;;;;;;21.10;5.30;;;18.70;99.90;;;;;;4970571;28;20150;-70
2022/06/11 08:07:18;;;;;;;22.95;5.70;;;18.80;99.90;;;;;;4967125;28;20057;-69
2022/06/11 08:09:44;;;;;;;22.70;5.45;;;19.00;99.90;;;;;;4984621;28;20047;-70
2022/06/11 08:12:10;;;;;;;18.73;5.43;;;19.00;99.90;;;;;;4982981;28;20068;-70
2022/06/11 08:14:36;;;;;;;20.77;5.30;;;18.90;99.90;;;;;;4971445;28;20050;-70
2022/06/11 08:17:02;;;;;;;25.08;5.72;;;18.70;99.90;;;;;;4990523;28;20030;-70
2022/06/11 08:19:28;;;;;;;26.08;5.93;;;18.70;99.90;;;;;;4956575;28;20038;-70
2022/06/11 08:21:57;;;;;;;22.70;5.10;;;18.80;99.90;;;;;;4982584;28;20034;-70
2022/06/11 08:24:23;;;;;;;23.48;5.35;;;19.00;99.90;;;;;;4966554;28;20071;-70
2022/06/11 08:26:48;;;;;;;19.27;4.40;;;19.20;99.90;;;;;;4992677;28;20066;-70
2022/06/11 08:32:56;;;;;;;20.08;5.07;;;19.10;99.90;;;;;;5523462;23;20545;-67
2022/06/11 08:35:24;;;;;;;17.00;4.97;;;19.20;99.90;;;;;;4992814;28;20113;-68
2022/06/11 08:37:50;;;;;;;20.58;5.65;;;19.10;99.90;;;;;;4981374;28;20042;-68
2022/06/11 08:40:31;;;;;;;24.42;5.22;;;19.10;99.90;;;;;;4954509;28;20048;-67
2022/06/11 08:43:24;;;;;;;22.75;5.03;;;19.30;99.90;;;;;;4974527;28;20045;-67
2022/06/11 08:45:56;;;;;;;21.98;5.40;;;19.50;99.90;;;;;;4989910;28;20050;-67
2022/06/11 08:48:21;;;;;;;16.65;5.07;;;19.70;99.90;;;;;;4969539;28;20109;-68
2022/06/11 08:51:20;;;;;;;24.92;5.65;;;19.80;99.90;;;;;;4974496;28;20129;-68
2022/06/11 08:53:48;;;;;;;15.05;4.28;;;20.00;99.90;;;;;;4979373;23;20210;-68
2022/06/11 09:00:15;;;;;;;21.20;5.18;;;20.00;99.90;;;;;;4919417;28;20071;-66
2022/06/11 09:02:53;;;;;;;20.67;4.55;;;20.10;99.90;;;;;;4989631;28;20096;-68
2022/06/11 09:05:57;;;;;;;20.75;5.05;;;20.10;99.90;;;;;;4980468;28;20037;-68
2022/06/11 09:08:34;;;;;;;16.85;4.47;;;20.50;99.90;;;;;;4976240;28;20076;-68
2022/06/11 09:11:12;;;;;;;21.23;4.78;;;20.50;99.90;;;;;;4974522;28;20375;-68
2022/06/11 09:14:00;;;;;;;27.25;5.45;;;20.70;99.90;;;;;;4976517;28;20050;-68
2022/06/11 09:16:46;;;;;;;19.90;4.70;;;20.80;99.90;;;;;;4975977;28;20046;-68
2022/06/11 09:19:21;;;;;;;20.02;4.95;;;20.80;99.90;;;;;;5524213;22;20028;-68
2022/06/11 09:22:01;;;;;;;18.20;4.85;;;20.50;99.90;;;;;;4943385;28;20053;-69
2022/06/11 09:25:00;;;;;;;21.83;4.43;;;20.20;99.90;;;;;;4935072;29;20702;-71
2022/06/11 09:27:32;;;;;;;18.65;4.70;;;20.00;99.90;;;;;;4955307;28;20286;-71
2022/06/11 09:30:18;;;;;;;23.30;5.43;;;19.80;99.90;;;;;;4959667;28;20491;-71
2022/06/11 09:33:03;;;;;;;27.85;4.85;;;20.00;99.90;;;;;;4933065;28;20129;-71
2022/06/11 09:35:53;;;;;;;20.33;5.07;;;20.10;99.90;;;;;;4943073;28;20487;-70
2022/06/11 09:38:19;;;;;;;20.95;5.50;;;20.50;99.90;;;;;;4955198;28;20114;-70
2022/06/11 09:40:53;;;;;;;18.48;4.15;;;20.60;99.90;;;;;;4963359;28;20135;-71
2022/06/11 09:43:40;;;;;;;19.80;4.32;;;20.40;99.90;;;;;;4962738;28;20085;-71
2022/06/11 09:46:14;;;;;;;18.48;4.65;;;20.10;99.90;;;;;;4952588;29;20035;-68
2022/06/11 09:52:35;;;;;;;18.90;4.40;;;20.30;99.90;;;;;;5918047;22;20059;-65
2022/06/11 09:55:34;;;;;;;19.02;4.30;;;20.40;99.90;;;;;;4958879;28;20117;-66
2022/06/11 09:58:24;;;;;;;20.75;5.05;;;20.70;99.90;;;;;;4977076;28;20618;-66
2022/06/11 10:00:58;;;;;;;17.98;4.15;;;20.90;99.90;;;;;;4958880;28;20476;-66
2022/06/11 10:03:35;;;;;;;14.35;3.90;;;20.90;99.90;;;;;;4993827;28;20034;-66
2022/06/11 10:06:16;;;;;;;17.13;3.67;;;21.00;99.90;;;;;;4976650;28;20396;-66
2022/06/11 10:08:51;;;;;;;14.70;3.72;;;21.20;99.90;;;;;;5602304;22;21292;-65
2022/06/11 10:16:32;;;;;;;9.07;3.28;;;21.20;99.90;;;;;;5457582;23;20053;-67
2022/06/11 10:19:32;;;;;;;21.95;3.95;;;21.20;99.30;;;;;;5026772;28;20138;-68
2022/06/11 10:22:05;;;;;;;11.32;3.15;;;21.20;99.00;;;;;;4939258;28;20502;-68
2022/06/11 10:24:34;;;;;;;13.18;3.15;;;21.20;99.50;;;;;;5023927;28;20120;-71
2022/06/11 10:27:09;;;;;;;12.75;3.28;;;21.20;98.90;;;;;;5015282;28;20072;-70
2022/06/11 10:29:41;;;;;;;16.88;3.63;;;21.20;98.00;;;;;;5012311;28;20042;-70
2022/06/11 10:32:35;;;;;;;15.65;3.95;;;21.30;99.40;;;;;;5027294;28;20071;-70
2022/06/11 10:35:10;;;;;;;13.10;3.50;;;21.20;99.20;;;;;;4994535;28;20046;-70
2022/06/11 10:37:45;;;;;;;15.70;3.90;;;21.20;99.10;;;;;;5012020;28;20053;-70
2022/06/11 10:40:40;;;;;;;14.07;3.40;;;21.30;99.90;;;;;;5015233;28;20046;-70
2022/06/11 10:43:32;;;;;;;15.20;4.07;;;21.40;98.60;;;;;;5011116;28;20050;-70
2022/06/11 10:45:58;;;;;;;18.23;4.40;;;21.20;97.80;;;;;;5001937;28;20060;-69
2022/06/11 11:00:06;;;;;;;14.57;3.88;;;21.40;99.40;;;;;;5556034;23;20057;-68
2022/06/11 11:02:49;;;;;;;11.07;3.10;;;21.50;97.90;;;;;;4967226;28;20498;-70
2022/06/11 11:05:18;;;;;;;18.38;3.35;;;21.70;98.10;;;;;;4978908;28;20086;-70
2022/06/11 11:07:58;;;;;;;18.85;3.50;;;21.70;97.40;;;;;;4992568;28;20038;-70
2022/06/11 11:10:35;;;;;;;11.50;3.30;;;21.60;97.10;;;;;;4974960;28;20124;-70
2022/06/11 11:13:11;;;;;;;12.45;3.25;;;21.40;97.20;;;;;;4972221;28;20034;-70
2022/06/11 11:15:40;;;;;;;13.32;3.45;;;21.30;97.80;;;;;;4975782;28;20046;-70
2022/06/11 11:18:21;;;;;;;13.40;3.30;;;21.30;98.40;;;;;;4955832;28;20049;-70
2022/06/11 11:20:49;;;;;;;;;;;21.50;98.50;;;;;;4963467;28;20043;-70
2022/06/11 11:23:17;;;;;;;12.73;3.55;;;21.40;97.10;;;;;;4950689;28;19918;-70
2022/06/11 11:25:53;;;;;;;13.10;4.03;;;21.40;97.80;;;;;;4984001;28;20414;-70
2022/06/11 11:32:39;;;;;;;14.68;3.42;;;21.60;97.30;;;;;;5151481;23;20474;-67
2022/06/11 11:35:16;;;;;;;19.92;3.75;;;21.80;96.90;;;;;;5019958;28;20048;-68
2022/06/11 11:49:31;;;;;;;16.52;3.70;;;22.20;99.00;;;;;;5491388;23;20095;-69
2022/06/11 11:52:15;;;;;;;14.43;3.47;;;22.30;98.10;;;;;;5005786;28;20132;-69
2022/06/11 11:58:29;;;;;;;13.75;3.30;;;22.50;98.10;;;;;;5211451;22;20093;-67
2022/06/11 12:01:07;;;;;;;11.93;3.20;;;22.70;96.20;;;;;;4966335;28;20105;-67
2022/06/11 12:03:43;;;;;;;15.70;3.13;;;22.70;96.10;;;;;;4972948;28;20050;-67
2022/06/11 12:06:12;;;;;;;14.75;3.80;;;22.50;96.10;;;;;;4973347;28;20140;-68
2022/06/11 12:11:35;;;;;;;12.32;3.42;;;22.40;95.80;;;;;;5355095;23;20062;-67
2022/06/11 12:14:15;;;;;;;16.75;3.72;;;22.50;95.40;;;;;;4948687;28;20039;-67
2022/06/11 12:16:49;;;;;;;14.20;3.38;;;22.50;96.60;;;;;;4953242;28;20038;-67
2022/06/11 12:23:12;;;;;;;18.05;3.60;;;22.30;95.20;;;;;;5017868;23;20052;-69
2022/06/11 12:25:44;;;;;;;11.55;3.17;;;22.50;95.60;;;;;;4973679;28;20038;-70
2022/06/11 12:28:18;;;;;;;12.30;3.58;;;22.70;95.70;;;;;;4958123;28;20042;-70
2022/06/11 12:30:43;;;;;;;14.20;3.35;;;22.80;95.20;;;;;;4969887;28;20502;-70
2022/06/11 12:36:19;;;;;;;13.55;3.30;;;23.00;94.30;;;;;;5560229;22;20058;-67
2022/06/11 12:39:04;;;;;;;13.77;3.53;;;23.30;95.10;;;;;;4952117;28;20054;-68
2022/06/11 12:41:44;;;;;;;13.48;3.63;;;23.40;96.30;;;;;;4967463;28;20047;-67
2022/06/11 12:44:49;;;;;;;13.23;3.70;;;23.40;93.00;;;;;;4943582;29;20116;-67
2022/06/11 12:50:09;;;;;;;12.05;3.30;;;23.40;94.50;;;;;;4965402;28;20051;-69
2022/06/11 12:53:09;;;;;;;14.80;3.33;;;23.40;93.00;;;;;;4954213;28;20137;-69
2022/06/11 12:55:57;;;;;;;10.52;3.05;;;23.20;91.90;;;;;;4968743;28;20034;-69
2022/06/11 12:58:39;;;;;;;9.65;3.17;;;23.10;92.30;;;;;;4951067;28;20499;-70
2022/06/11 13:06:59;;;;;;;20.90;3.97;;;23.80;93.50;;;;;;5365421;22;20053;-69
2022/06/11 13:09:40;;;;;;;12.07;3.33;;;24.10;93.70;;;;;;4992500;28;20041;-70
2022/06/11 13:16:06;;;;;;;16.20;3.70;;;24.00;91.10;;;;;;5249737;22;20203;-69
2022/06/11 13:18:59;;;;;;;14.85;3.95;;;24.00;93.40;;;;;;5030324;28;20115;-69
2022/06/11 13:21:59;;;;;;;13.77;3.28;;;23.90;93.30;;;;;;5005493;28;20413;-69
2022/06/11 13:34:57;;;;;;;13.77;3.70;;;23.90;94.00;;;;;;4989053;28;20045;-67
2022/06/11 13:37:43;;;;;;;16.95;3.78;;;24.20;93.50;;;;;;4966650;28;20078;-67
2022/06/11 13:40:22;;;;;;;14.93;4.05;;;24.10;90.50;;;;;;4968137;28;20046;-67
2022/06/11 13:43:17;;;;;;;12.30;3.25;;;23.90;93.00;;;;;;4962345;28;20078;-67
2022/06/11 13:46:02;;;;;;;14.63;3.40;;;24.30;93.50;;;;;;4968881;28;20392;-67
2022/06/11 13:49:13;;;;;;;13.65;3.40;;;24.30;92.50;;;;;;4937835;28;20178;-67
2022/06/11 13:57:31;;;;;;;13.77;3.60;;;24.10;92.20;;;;;;4941526;28;20133;-70
2022/06/11 14:00:34;;;;;;;12.70;3.65;;;24.10;92.70;;;;;;4969885;28;20050;-70
2022/06/11 14:03:21;;;;;;;13.15;3.50;;;24.60;93.00;;;;;;4953736;28;20430;-70
2022/06/11 14:05:50;;;;;;;11.60;3.40;;;24.90;91.10;;;;;;5416268;23;20200;-67
2022/06/11 14:08:21;;;;;;;16.00;4.28;;;24.50;90.60;;;;;;4992172;28;20045;-68
2022/06/11 14:10:49;;;;;;;11.52;3.60;;;24.30;91.60;;;;;;4984388;28;20057;-68
2022/06/11 14:20:31;;;;;;;12.30;3.75;;;25.70;87.30;;;;;;5007424;28;20004;-68
2022/06/11 14:23:04;;;;;;;12.07;3.88;;;26.20;90.10;;;;;;4970221;28;20491;-67
2022/06/11 14:25:36;;;;;;;13.05;3.25;;;26.70;87.10;;;;;;4977248;28;20069;-67
2022/06/11 14:28:14;;;;;;;16.48;3.60;;;26.60;86.80;;;;;;4989893;28;20077;-67
2022/06/11 14:30:47;;;;;;;14.30;3.47;;;26.20;82.10;;;;;;4995033;28;20057;-67
2022/06/11 14:33:13;;;;;;;10.07;3.22;;;26.30;85.80;;;;;;4992755;28;20046;-68
2022/06/11 14:35:48;;;;;;;11.88;3.58;;;26.10;88.80;;;;;;5004326;28;20626;-68
2022/06/11 14:38:24;;;;;;;17.08;3.40;;;25.70;82.10;;;;;;4991166;28;20052;-67
2022/06/11 14:41:19;;;;;;;15.10;3.70;;;25.60;87.00;;;;;;4986624;28;20092;-67
2022/06/11 14:43:50;;;;;;;16.10;3.60;;;25.70;82.00;;;;;;4981087;28;20099;-67
2022/06/11 14:46:31;;;;;;;15.13;3.88;;;26.00;85.40;;;;;;4980758;28;20069;-67
2022/06/11 14:49:12;;;;;;;13.63;3.47;;;26.40;83.40;;;;;;4997676;28;20057;-67
2022/06/11 14:51:41;;;;;;;11.95;3.65;;;26.90;81.30;;;;;;5000636;28;20044;-67
2022/06/11 14:54:41;;;;;;;10.35;3.45;;;27.20;79.10;;;;;;5002091;28;20025;-68
2022/06/11 14:57:19;;;;;;;16.63;3.63;;;27.10;66.10;;;;;;4994942;28;20065;-68
2022/06/11 15:00:13;;;;;;;13.70;3.55;;;26.60;77.30;;;;;;5009514;28;20046;-67
2022/06/11 15:03:10;;;;;;;13.50;3.40;;;26.10;77.90;;;;;;4983573;28;20055;-68
2022/06/11 15:06:22;;;;;;;11.32;3.20;;;25.70;87.80;;;;;;4994813;28;20078;-67
2022/06/11 15:09:12;;;;;;;12.80;3.90;;;25.70;85.10;;;;;;4994496;28;20053;-67
2022/06/11 15:12:02;;;;;;;13.48;4.20;;;25.90;82.70;;;;;;4995213;28;20038;-68
2022/06/11 15:14:37;;;;;;;15.25;3.42;;;26.80;75.10;;;;;;4995657;28;20045;-68
2022/06/11 15:17:07;;;;;;;13.80;3.70;;;27.50;70.40;;;;;;4989742;28;20053;-67
2022/06/11 15:19:33;;;;;;;13.97;3.30;;;27.80;74.10;;;;;;4966973;28;20042;-68
2022/06/11 15:22:06;;;;;;;12.43;3.42;;;26.70;73.80;;;;;;4996107;28;20561;-67
2022/06/11 15:24:39;;;;;;;11.85;3.35;;;26.50;74.20;;;;;;4994553;28;20042;-67
2022/06/11 15:29:41;;;;;;;11.75;3.53;;;27.60;75.70;;;;;;5191869;23;20050;-68
2022/06/11 15:32:13;;;;;;;12.35;3.65;;;27.20;72.20;;;;;;4970533;28;20065;-68
2022/06/11 15:34:50;;;;;;;12.48;3.25;;;27.30;72.50;;;;;;4984988;28;20047;-68
2022/06/11 15:41:39;;;;;;;14.18;3.22;;;28.10;66.30;;;;;;5040706;28;20020;-69
2022/06/11 15:44:08;;;;;;;15.18;3.92;;;28.50;64.70;;;;;;4910788;29;20512;-68
2022/06/11 15:46:40;;;;;;;12.63;3.10;;;29.30;65.90;;;;;;4985609;28;20052;-68
2022/06/11 15:49:30;;;;;;;13.85;3.53;;;29.00;60.90;;;;;;5003321;28;20034;-68
2022/06/11 15:52:34;;;;;;;14.27;3.47;;;29.20;60.60;;;;;;4976115;28;20053;-68
2022/06/11 15:55:14;;;;;;;12.77;3.22;;;29.20;58.60;;;;;;4986437;28;20034;-68
2022/06/11 15:57:54;;;;;;;12.10;3.45;;;28.90;59.20;;;;;;4992373;28;20071;-68
2022/06/11 16:00:23;;;;;;;11.15;3.20;;;28.80;59.10;;;;;;4981693;28;20035;-69
2022/06/11 16:02:53;;;;;;;12.70;3.83;;;28.90;60.20;;;;;;4991257;28;20046;-68
2022/06/11 16:05:29;;;;;;;10.95;3.15;;;28.30;59.70;;;;;;5331070;23;20038;-68
2022/06/11 16:07:57;;;;;;;11.15;3.45;;;28.10;58.90;;;;;;4967236;28;20042;-68
2022/06/11 16:10:30;;;;;;;12.98;2.90;;;28.20;62.20;;;;;;4973874;28;20414;-68
2022/06/11 16:12:56;;;;;;;8.00;3.03;;;28.30;60.20;;;;;;4990168;28;20074;-68
2022/06/11 16:15:26;;;;;;;11.05;3.10;;;28.60;61.70;;;;;;4968112;28;20038;-69
2022/06/11 16:17:52;;;;;;;10.77;3.47;;;28.00;61.00;;;;;;4982072;28;20096;-71
2022/06/11 16:20:36;;;;;;;12.07;3.92;;;27.20;62.40;;;;;;4988678;28;20046;-71
2022/06/11 16:23:15;;;;;;;16.13;3.40;;;26.80;65.20;;;;;;4986119;28;20042;-70
2022/06/11 16:25:47;;;;;;;13.93;3.25;;;26.30;65.90;;;;;;4981530;28;20042;-70
2022/06/11 16:28:21;;;;;;;16.33;3.65;;;26.00;66.30;;;;;;4985346;28;20030;-71
2022/06/11 16:30:48;;;;;;;10.38;3.35;;;25.90;67.60;;;;;;4985832;28;20035;-70
2022/06/11 16:33:16;;;;;;;11.27;3.30;;;26.50;67.10;;;;;;4964971;28;20047;-71
2022/06/11 16:35:57;;;;;;;11.55;3.22;;;26.90;66.40;;;;;;4985033;28;20499;-71